Time;durP1;ratioP1;P1;durP2;ratioP2;P2;SDS_P1;SDS_P2;PMS_P1;PMS_P2;Temp;Humidity;BMP_temperature;BMP_pressure;BME280_temperature;BME280_humidity;BME280_pressure;Samples;Min_cycle;Max_cycle;Signal;HPM_P1;HPM_P2
2022/02/11 00:06:12;;;;;;;3.45;1.75;;;17.70;69.70;;;;;;10431088;28;20029;-56
2022/02/11 00:11:19;;;;;;;3.80;1.85;;;17.70;69.50;;;;;;10413827;28;20545;-57
2022/02/11 00:16:20;;;;;;;3.33;1.55;;;17.70;70.10;;;;;;10414118;28;20112;-57
2022/02/11 00:21:21;;;;;;;3.63;1.77;;;17.80;69.40;;;;;;10413673;28;20037;-55
2022/02/11 00:26:28;;;;;;;4.10;1.75;;;17.80;69.50;;;;;;10430008;28;20037;-56
2022/02/11 00:37:26;;;;;;;3.50;1.80;;;17.80;69.40;;;;;;10452303;28;20556;-57
2022/02/11 01:08:29;;;;;;;2.30;1.20;;;17.70;69.00;;;;;;10398103;28;20033;-57
2022/02/11 01:13:30;;;;;;;2.80;1.10;;;17.80;68.90;;;;;;10412384;28;20110;-57
2022/02/11 01:18:31;;;;;;;3.15;1.77;;;17.90;69.00;;;;;;10411828;28;20566;-57
2022/02/11 01:34:32;;;;;;;2.65;1.20;;;17.80;69.00;;;;;;10411253;28;20037;-57
2022/02/11 01:45:01;;;;;;;1.73;0.95;;;17.80;69.00;;;;;;10427925;28;20033;-57
2022/02/11 02:00:53;;;;;;;2.10;1.00;;;17.80;69.00;;;;;;10411358;28;20037;-56
2022/02/11 02:06:17;;;;;;;2.20;1.05;;;17.80;69.00;;;;;;10411570;28;20029;-57
2022/02/11 02:59:05;;;;;;;2.78;1.30;;;17.90;68.70;;;;;;10417825;28;20045;-56
2022/02/11 03:31:38;;;;;;;1.95;1.10;;;17.80;68.60;;;;;;10430866;28;20049;-57
2022/02/11 03:52:18;;;;;;;1.20;0.70;;;17.90;68.80;;;;;;10374778;28;20041;-57
2022/02/11 04:55:41;;;;;;;0.93;0.60;;;17.80;68.50;;;;;;10413795;28;20037;-57
2022/02/11 05:00:42;;;;;;;2.03;0.93;;;17.80;68.50;;;;;;10412645;28;20373;-56
2022/02/11 05:05:52;;;;;;;2.17;0.70;;;17.90;68.50;;;;;;10412737;28;20049;-57
2022/02/11 05:10:56;;;;;;;1.50;0.57;;;17.80;68.40;;;;;;10411566;28;20112;-57
2022/02/11 05:15:57;;;;;;;1.73;0.70;;;17.80;68.50;;;;;;10394442;28;20588;-57
2022/02/11 05:20:57;;;;;;;1.73;0.60;;;17.90;68.50;;;;;;10412194;28;20109;-57
2022/02/11 05:25:58;;;;;;;2.15;0.70;;;17.90;68.70;;;;;;10426938;28;20030;-57
2022/02/11 05:30:59;;;;;;;1.30;0.50;;;17.80;68.30;;;;;;10427352;28;20041;-57
2022/02/11 05:36:00;;;;;;;2.03;0.50;;;17.90;69.30;;;;;;10454646;28;20030;-57
2022/02/11 05:41:00;;;;;;;1.35;0.60;;;17.80;68.40;;;;;;10395230;28;20201;-57
2022/02/11 05:46:01;;;;;;;2.25;0.82;;;17.80;68.30;;;;;;10411318;28;20028;-55
2022/02/11 05:51:03;;;;;;;0.90;0.50;;;17.90;68.70;;;;;;10434512;28;20063;-57
2022/02/11 05:56:04;;;;;;;1.27;0.50;;;17.80;68.30;;;;;;10419174;28;20033;-56
2022/02/11 06:01:05;;;;;;;1.10;0.60;;;17.80;68.60;;;;;;10419325;28;20060;-57
2022/02/11 06:06:06;;;;;;;2.05;0.70;;;17.90;68.60;;;;;;10402632;28;20104;-57
2022/02/11 06:11:07;;;;;;;2.45;0.70;;;17.80;68.50;;;;;;10397114;28;20112;-57
2022/02/11 06:16:07;;;;;;;5.50;0.75;;;17.80;68.10;;;;;;10390342;28;20081;-58
2022/02/11 06:21:08;;;;;;;3.25;0.82;;;17.80;68.80;;;;;;10435274;28;20057;-58
2022/02/11 06:26:09;;;;;;;5.63;1.30;;;17.90;69.00;;;;;;10418182;28;20436;-57
2022/02/11 06:31:10;;;;;;;4.07;1.10;;;17.90;69.10;;;;;;10418109;28;20042;-56
2022/02/11 06:36:11;;;;;;;5.15;1.08;;;18.00;70.50;;;;;;10443280;28;20418;-57
2022/02/11 06:41:12;;;;;;;5.97;1.17;;;17.90;70.00;;;;;;10417836;28;20033;-57
2022/02/11 06:46:12;;;;;;;4.93;1.10;;;18.00;71.20;;;;;;10417241;28;20370;-58
2022/02/11 06:51:13;;;;;;;4.65;1.70;;;18.00;70.80;;;;;;10415665;28;20037;-56
2022/02/11 06:56:14;;;;;;;10.95;1.98;;;18.00;71.20;;;;;;10421458;28;20033;-56
2022/02/11 07:01:15;;;;;;;6.07;0.93;;;18.00;70.10;;;;;;10416604;28;20024;-57
2022/02/11 07:06:16;;;;;;;13.05;1.42;;;18.00;70.20;;;;;;10413416;28;20053;-57
2022/02/11 07:11:17;;;;;;;11.13;1.98;;;18.00;69.80;;;;;;10416969;28;20060;-57
2022/02/11 07:16:18;;;;;;;17.70;2.15;;;18.00;69.20;;;;;;10416334;28;20078;-58
2022/02/11 07:21:18;;;;;;;9.60;2.03;;;18.00;69.30;;;;;;10416247;28;20082;-58
2022/02/11 07:26:19;;;;;;;16.77;2.15;;;17.80;69.30;;;;;;10401051;28;20141;-58
2022/02/11 07:31:20;;;;;;;20.38;2.33;;;18.00;69.60;;;;;;10429856;28;20144;-56
2022/02/11 07:36:20;;;;;;;9.30;1.75;;;18.00;69.20;;;;;;10437054;28;20105;-57
2022/02/11 07:41:21;;;;;;;12.07;1.88;;;18.00;69.10;;;;;;10413271;28;20033;-56
2022/02/11 07:46:22;;;;;;;9.93;2.20;;;17.90;69.50;;;;;;10415150;28;20113;-56
2022/02/11 07:51:22;;;;;;;8.55;1.83;;;17.80;69.60;;;;;;10426853;28;20044;-53
2022/02/11 07:56:23;;;;;;;11.25;2.35;;;17.70;71.70;;;;;;10425006;28;20703;-52
2022/02/11 08:01:24;;;;;;;9.35;2.17;;;17.70;70.90;;;;;;10412879;28;20048;-52
2022/02/11 08:06:24;;;;;;;8.45;2.10;;;17.70;70.10;;;;;;10427595;28;20037;-52
2022/02/11 08:11:25;;;;;;;5.50;1.77;;;17.60;69.30;;;;;;10412289;28;20452;-52
2022/02/11 08:16:26;;;;;;;9.88;1.95;;;17.70;69.10;;;;;;10413459;28;20075;-51
2022/02/11 08:21:26;;;;;;;8.05;1.58;;;17.70;68.80;;;;;;10429071;28;20040;-53
2022/02/11 08:26:29;;;;;;;9.57;1.70;;;17.60;68.40;;;;;;10414372;28;20436;-53
2022/02/11 08:31:33;;;;;;;11.68;1.40;;;17.70;68.20;;;;;;10410816;28;20045;-52
2022/02/11 08:36:34;;;;;;;7.28;2.00;;;17.60;67.90;;;;;;10413010;28;20104;-57
2022/02/11 08:41:34;;;;;;;5.47;2.00;;;17.80;67.70;;;;;;10411880;28;20052;-55
2022/02/11 08:46:35;;;;;;;7.90;1.95;;;17.70;67.70;;;;;;10412153;28;20030;-56
2022/02/11 08:51:36;;;;;;;5.38;2.00;;;17.80;67.50;;;;;;10412478;28;20499;-55
2022/02/11 08:56:39;;;;;;;6.13;1.25;;;17.70;67.00;;;;;;10411988;28;20028;-55
2022/02/11 09:01:39;;;;;;;10.20;1.98;;;17.80;67.00;;;;;;10411562;28;20390;-56
2022/02/11 09:06:40;;;;;;;4.38;2.08;;;17.70;67.10;;;;;;10411266;28;20049;-55
2022/02/11 09:11:41;;;;;;;4.53;1.17;;;17.70;67.10;;;;;;10409519;28;20104;-55
2022/02/11 09:16:42;;;;;;;5.25;1.30;;;17.50;66.90;;;;;;10389485;28;20391;-55
2022/02/11 09:21:43;;;;;;;5.25;1.45;;;17.50;66.90;;;;;;10412211;28;20108;-54
2022/02/11 09:26:44;;;;;;;6.90;1.95;;;17.50;66.60;;;;;;10421211;28;20032;-55
2022/02/11 09:31:45;;;;;;;6.20;1.65;;;17.50;67.00;;;;;;10415645;28;20038;-54
2022/02/11 09:36:45;;;;;;;10.48;1.60;;;17.40;67.10;;;;;;10419997;28;20025;-55
2022/02/11 09:41:46;;;;;;;7.10;1.38;;;17.40;66.40;;;;;;10418520;28;20104;-53
2022/02/11 09:46:49;;;;;;;5.00;1.38;;;17.40;66.50;;;;;;10434324;28;20099;-54
2022/02/11 09:51:53;;;;;;;9.55;1.70;;;17.40;66.30;;;;;;10403460;28;20036;-51
2022/02/11 09:56:54;;;;;;;6.57;2.05;;;17.50;66.50;;;;;;10418258;28;20458;-51
2022/02/11 10:01:59;;;;;;;8.02;1.75;;;17.50;67.10;;;;;;10407687;28;20033;-52
2022/02/11 10:07:00;;;;;;;4.55;1.70;;;17.60;66.60;;;;;;10433432;28;20478;-53
2022/02/11 10:12:01;;;;;;;6.03;1.58;;;17.60;66.40;;;;;;10419325;28;20060;-52
2022/02/11 10:17:10;;;;;;;4.80;1.42;;;17.70;66.10;;;;;;10396825;28;20497;-52
2022/02/11 10:22:19;;;;;;;5.78;1.67;;;17.70;66.60;;;;;;10404562;28;20034;-53
2022/02/11 10:27:29;;;;;;;5.93;1.70;;;17.70;66.50;;;;;;10419010;28;20072;-52
2022/02/11 10:32:44;;;;;;;4.75;1.80;;;17.60;66.70;;;;;;10413771;28;20448;-52
2022/02/11 10:38:13;;;;;;;10.35;1.95;;;17.50;66.50;;;;;;10414634;28;20616;-53
2022/02/11 10:43:29;;;;;;;7.47;1.90;;;17.40;66.80;;;;;;10418425;28;20054;-53
2022/02/11 10:48:37;;;;;;;6.93;1.60;;;17.40;67.20;;;;;;10414847;28;20084;-52
2022/02/11 10:53:42;;;;;;;5.22;1.70;;;17.30;67.20;;;;;;10417069;28;20091;-54
2022/02/11 10:58:57;;;;;;;3.45;1.23;;;17.40;67.30;;;;;;10399466;28;20525;-54
2022/02/11 11:03:58;;;;;;;6.95;1.67;;;17.40;67.20;;;;;;10413136;28;20052;-53
2022/02/11 11:09:00;;;;;;;4.88;1.33;;;17.30;67.10;;;;;;10413815;28;20112;-53
2022/02/11 11:14:02;;;;;;;5.00;1.55;;;17.30;66.90;;;;;;10396449;28;20041;-55
2022/02/11 11:19:03;;;;;;;5.40;1.42;;;17.40;67.00;;;;;;10404288;28;20029;-55
2022/02/11 11:24:05;;;;;;;7.13;1.33;;;17.30;66.90;;;;;;10417269;28;20690;-55
2022/02/11 11:29:11;;;;;;;5.97;1.80;;;17.40;66.80;;;;;;10415686;28;20049;-55
2022/02/11 11:34:14;;;;;;;5.28;1.40;;;17.40;66.70;;;;;;10435357;28;20041;-55
2022/02/11 11:39:18;;;;;;;5.47;1.50;;;17.40;66.50;;;;;;10457944;28;20033;-53
2022/02/11 11:44:22;;;;;;;4.30;1.25;;;17.40;66.50;;;;;;10422048;28;20037;-54
2022/02/11 11:49:26;;;;;;;4.05;0.98;;;17.30;66.40;;;;;;10414577;28;20037;-53
2022/02/11 11:54:27;;;;;;;4.60;1.48;;;17.20;66.50;;;;;;10416097;28;20034;-54
2022/02/11 11:59:47;;;;;;;3.30;1.50;;;17.10;66.40;;;;;;10415790;28;20409;-55
2022/02/11 12:04:54;;;;;;;3.70;1.27;;;17.20;66.50;;;;;;10430301;28;20026;-55
2022/02/11 12:09:59;;;;;;;7.00;1.38;;;17.20;66.50;;;;;;10414322;28;20036;-54
2022/02/11 12:15:06;;;;;;;3.85;1.10;;;17.20;66.40;;;;;;10415441;28;20029;-54
2022/02/11 12:20:07;;;;;;;5.05;1.45;;;17.30;66.30;;;;;;10374326;28;20026;-54
2022/02/11 12:30:28;;;;;;;2.78;1.02;;;17.30;66.20;;;;;;10414176;28;20049;-54
2022/02/11 12:35:36;;;;;;;2.08;0.75;;;17.20;66.10;;;;;;10433949;28;20124;-54
2022/02/11 12:40:41;;;;;;;3.85;1.30;;;17.10;66.10;;;;;;10413959;28;20064;-54
2022/02/11 12:45:44;;;;;;;4.40;2.13;;;17.10;66.20;;;;;;10413489;28;20453;-55
2022/02/11 12:50:53;;;;;;;2.30;0.70;;;17.00;66.30;;;;;;10414031;28;20067;-54
2022/02/11 12:55:55;;;;;;;;;;;17.10;66.30;;;;;;10414550;28;20029;-54
2022/02/11 13:00:58;;;;;;;3.30;0.80;;;17.10;66.20;;;;;;10413244;28;19920;-54
2022/02/11 13:06:04;;;;;;;4.38;1.08;;;17.10;66.20;;;;;;10412290;28;20079;-54
2022/02/11 13:11:07;;;;;;;4.60;1.08;;;17.10;66.00;;;;;;10411999;28;20490;-55
2022/02/11 13:16:07;;;;;;;2.88;1.23;;;17.10;65.90;;;;;;10413588;28;20034;-55
2022/02/11 13:21:09;;;;;;;2.53;0.80;;;17.20;65.90;;;;;;10411808;28;20017;-55
2022/02/11 13:26:14;;;;;;;2.42;0.60;;;17.20;66.10;;;;;;10428620;28;20037;-55
2022/02/11 13:31:15;;;;;;;2.75;0.80;;;17.20;65.80;;;;;;10386657;28;20049;-55
2022/02/11 13:36:26;;;;;;;1.75;0.55;;;17.20;65.70;;;;;;10464101;28;20041;-55
2022/02/11 13:41:33;;;;;;;3.95;0.90;;;17.10;65.70;;;;;;10446347;28;20021;-55
2022/02/11 13:46:34;;;;;;;1.83;0.90;;;17.20;65.70;;;;;;10413049;28;20025;-55
2022/02/11 13:51:37;;;;;;;2.97;0.80;;;17.20;65.70;;;;;;10412595;28;20413;-55
2022/02/11 13:56:47;;;;;;;1.70;0.60;;;17.10;65.60;;;;;;10412562;28;20470;-55
2022/02/11 14:01:48;;;;;;;2.05;0.82;;;17.10;65.60;;;;;;10405858;28;20457;-55
2022/02/11 14:06:53;;;;;;;2.25;0.98;;;17.10;65.70;;;;;;10412416;28;20072;-54
2022/02/11 14:11:55;;;;;;;2.45;0.63;;;17.00;65.60;;;;;;10433337;28;20083;-54
2022/02/11 14:16:58;;;;;;;1.02;0.60;;;16.90;65.60;;;;;;10419804;28;20029;-55
2022/02/11 14:22:01;;;;;;;3.50;0.80;;;16.90;65.70;;;;;;10419701;28;20123;-52
2022/02/11 14:27:02;;;;;;;2.72;0.85;;;16.90;65.80;;;;;;10434910;28;20030;-54
2022/02/11 14:32:04;;;;;;;2.90;0.70;;;16.90;65.80;;;;;;10419641;28;20045;-55
2022/02/11 14:37:05;;;;;;;1.85;0.52;;;16.90;65.90;;;;;;10460455;28;20067;-54
2022/02/11 14:42:06;;;;;;;1.05;0.50;;;16.90;65.80;;;;;;10451842;28;20067;-55
2022/02/11 14:47:08;;;;;;;2.00;0.90;;;17.00;65.60;;;;;;10419011;28;20069;-55
2022/02/11 14:52:12;;;;;;;1.52;1.00;;;17.00;65.40;;;;;;10417223;28;20029;-54
2022/02/11 14:57:14;;;;;;;3.38;1.02;;;17.00;65.40;;;;;;10433256;28;20033;-54
2022/02/11 15:02:14;;;;;;;2.53;0.73;;;17.00;65.30;;;;;;10416811;28;20041;-55
2022/02/11 15:07:15;;;;;;;1.75;0.70;;;17.00;65.10;;;;;;10418132;28;20040;-55
2022/02/11 15:12:16;;;;;;;2.40;0.98;;;17.00;65.00;;;;;;10417793;28;20113;-54
2022/02/11 15:17:16;;;;;;;1.90;0.70;;;17.00;65.00;;;;;;10417868;28;20032;-55
2022/02/11 15:22:18;;;;;;;1.13;0.40;;;17.00;64.90;;;;;;10431529;28;20025;-53
2022/02/11 15:27:19;;;;;;;2.33;0.50;;;17.00;64.80;;;;;;10416009;28;20029;-55
2022/02/11 15:32:20;;;;;;;2.20;0.80;;;17.10;64.50;;;;;;10419972;28;20377;-54
2022/02/11 15:37:20;;;;;;;2.17;0.52;;;17.20;64.30;;;;;;10456823;28;20037;-55
2022/02/11 15:42:21;;;;;;;1.00;0.40;;;17.20;64.20;;;;;;10447604;28;20525;-55
2022/02/11 15:47:25;;;;;;;1.42;0.73;;;17.20;64.10;;;;;;10415361;28;20033;-55
2022/02/11 15:52:26;;;;;;;2.05;0.60;;;17.30;64.70;;;;;;10398761;28;20449;-55
2022/02/11 15:57:27;;;;;;;1.92;0.55;;;17.20;63.90;;;;;;10416253;28;20113;-54
2022/02/11 16:02:27;;;;;;;0.88;0.40;;;17.20;64.00;;;;;;10431118;28;20033;-54
2022/02/11 16:07:28;;;;;;;1.27;0.50;;;17.20;63.90;;;;;;10414517;28;20038;-55
2022/02/11 16:12:30;;;;;;;1.48;0.40;;;17.30;63.80;;;;;;10414285;28;20478;-54
2022/02/11 16:17:32;;;;;;;1.17;0.30;;;17.30;63.70;;;;;;10415257;28;20112;-55
2022/02/11 16:22:33;;;;;;;1.20;0.40;;;17.30;64.20;;;;;;10414779;28;20029;-55
2022/02/11 16:27:34;;;;;;;0.90;0.30;;;17.40;63.50;;;;;;10415002;28;20506;-55
2022/02/11 16:32:35;;;;;;;2.03;0.47;;;17.30;63.40;;;;;;10419051;28;20179;-55
2022/02/11 16:37:35;;;;;;;2.20;0.60;;;17.40;63.30;;;;;;10455805;28;20028;-55
2022/02/11 16:42:36;;;;;;;1.50;0.98;;;17.40;63.10;;;;;;10443313;28;20048;-53
2022/02/11 16:47:40;;;;;;;1.83;0.50;;;17.50;63.10;;;;;;10412964;28;20120;-54
2022/02/11 16:52:41;;;;;;;0.90;0.40;;;17.40;62.90;;;;;;10428869;28;20044;-53
2022/02/11 16:57:41;;;;;;;1.10;0.40;;;17.40;62.90;;;;;;10413940;28;20396;-55
2022/02/11 17:02:42;;;;;;;2.00;0.50;;;17.40;62.80;;;;;;10413582;28;20117;-55
2022/02/11 17:07:43;;;;;;;1.45;0.70;;;17.40;62.80;;;;;;10413760;28;20032;-55
2022/02/11 17:12:44;;;;;;;3.50;0.57;;;17.40;62.70;;;;;;10411929;28;20128;-55
2022/02/11 17:17:47;;;;;;;0.82;0.40;;;17.40;62.60;;;;;;10412226;28;20030;-55
2022/02/11 17:22:48;;;;;;;1.70;0.47;;;17.40;62.50;;;;;;10428519;28;20044;-55
2022/02/11 17:27:49;;;;;;;1.25;0.40;;;17.50;62.50;;;;;;10411856;28;20041;-54
2022/02/11 17:32:50;;;;;;;1.40;0.50;;;17.50;62.30;;;;;;10419135;28;20136;-55
2022/02/11 17:37:50;;;;;;;0.95;0.50;;;17.50;62.30;;;;;;10454601;28;20116;-55
2022/02/11 17:42:51;;;;;;;0.82;0.40;;;17.50;62.10;;;;;;10419326;28;20026;-55
2022/02/11 17:47:52;;;;;;;1.70;0.40;;;17.50;62.10;;;;;;10419608;28;20591;-54
2022/02/11 17:52:53;;;;;;;1.60;0.40;;;17.50;62.10;;;;;;10435986;28;20124;-55
2022/02/11 17:57:53;;;;;;;1.75;0.47;;;17.50;62.20;;;;;;10419606;28;20034;-55
2022/02/11 18:02:54;;;;;;;1.23;0.55;;;17.50;62.00;;;;;;10419223;28;20119;-55
2022/02/11 18:07:56;;;;;;;1.23;0.65;;;17.50;61.90;;;;;;10418619;28;20103;-54
2022/02/11 18:12:56;;;;;;;1.15;0.28;;;17.50;61.90;;;;;;10433817;28;20044;-53
2022/02/11 18:17:58;;;;;;;0.90;0.50;;;17.50;61.70;;;;;;10418149;28;20179;-55
2022/02/11 18:22:59;;;;;;;0.93;0.40;;;17.50;61.70;;;;;;10416602;28;20029;-54
2022/02/11 18:28:01;;;;;;;2.30;0.63;;;17.50;61.70;;;;;;10433839;28;20049;-55
2022/02/11 18:33:01;;;;;;;1.02;0.43;;;17.50;61.70;;;;;;10426057;28;20451;-53
2022/02/11 18:38:03;;;;;;;1.10;0.43;;;17.50;61.60;;;;;;10458784;28;20055;-53
2022/02/11 18:43:07;;;;;;;1.08;0.47;;;17.50;61.60;;;;;;10416775;28;20037;-54
2022/02/11 18:48:08;;;;;;;2.15;0.50;;;17.50;61.60;;;;;;10415801;28;20033;-55
2022/02/11 18:53:08;;;;;;;0.57;0.30;;;17.50;61.50;;;;;;10416528;28;20034;-53
2022/02/11 18:58:09;;;;;;;1.67;0.60;;;17.50;61.50;;;;;;10417377;28;20533;-54
2022/02/11 19:03:10;;;;;;;1.65;0.50;;;17.40;61.50;;;;;;10431739;28;20552;-53
2022/02/11 19:08:11;;;;;;;1.35;0.40;;;17.50;61.40;;;;;;10414824;28;20094;-54
2022/02/11 19:13:12;;;;;;;1.52;0.50;;;17.50;61.30;;;;;;10416456;28;20038;-55
2022/02/11 19:18:13;;;;;;;3.58;0.45;;;17.50;61.30;;;;;;10415860;28;20167;-54
2022/02/11 19:23:14;;;;;;;1.77;0.50;;;17.50;61.20;;;;;;10398065;28;20386;-54
2022/02/11 19:28:15;;;;;;;1.15;0.47;;;17.50;61.10;;;;;;10415653;28;20022;-55
2022/02/11 19:33:16;;;;;;;1.17;0.50;;;17.50;61.20;;;;;;10425624;28;20041;-55
2022/02/11 19:38:16;;;;;;;1.20;0.45;;;17.50;61.10;;;;;;10456528;28;20033;-54
2022/02/11 19:43:17;;;;;;;1.35;0.38;;;17.50;61.00;;;;;;10417165;28;20051;-54
2022/02/11 19:48:18;;;;;;;1.13;0.45;;;17.50;60.90;;;;;;10415378;28;20112;-55
2022/02/11 19:53:19;;;;;;;1.77;0.60;;;17.50;60.80;;;;;;10414141;28;20113;-53
2022/02/11 19:58:20;;;;;;;1.33;0.60;;;17.50;60.70;;;;;;10429738;28;20502;-55
2022/02/11 20:03:21;;;;;;;1.33;0.45;;;17.50;60.70;;;;;;10413576;28;20052;-53
2022/02/11 20:08:23;;;;;;;2.72;1.15;;;17.50;60.70;;;;;;10411694;28;20040;-55
2022/02/11 20:13:24;;;;;;;1.55;0.60;;;17.50;60.60;;;;;;10428863;28;20033;-55
2022/02/11 20:18:25;;;;;;;1.55;0.68;;;17.50;60.60;;;;;;10413596;28;20091;-55
2022/02/11 20:23:26;;;;;;;1.65;0.60;;;17.50;60.50;;;;;;10412015;28;20033;-53
2022/02/11 20:28:27;;;;;;;3.63;0.85;;;17.50;60.50;;;;;;10411959;28;20072;-54
2022/02/11 20:33:28;;;;;;;1.25;0.40;;;17.50;60.30;;;;;;10423906;28;20049;-54
2022/02/11 20:38:29;;;;;;;1.55;0.52;;;17.50;60.40;;;;;;10424575;28;20033;-55
2022/02/11 20:43:31;;;;;;;1.27;0.40;;;17.50;60.20;;;;;;10411186;28;20025;-54
2022/02/11 20:48:37;;;;;;;1.40;0.50;;;17.50;60.20;;;;;;10412414;28;20021;-55
2022/02/11 20:53:38;;;;;;;1.42;0.60;;;17.50;60.10;;;;;;10412086;28;20449;-55
2022/02/11 20:58:39;;;;;;;1.45;0.45;;;17.50;60.80;;;;;;10412398;28;20537;-55
2022/02/11 21:03:40;;;;;;;1.38;0.52;;;17.50;60.00;;;;;;10410518;28;20041;-53
2022/02/11 21:08:41;;;;;;;2.20;0.70;;;17.50;59.90;;;;;;10412494;28;20102;-54
2022/02/11 21:13:42;;;;;;;0.98;0.43;;;17.50;59.80;;;;;;10411684;28;20033;-55
2022/02/11 21:18:43;;;;;;;3.05;0.70;;;17.60;59.70;;;;;;10410082;28;20030;-54
2022/02/11 21:23:43;;;;;;;2.47;0.73;;;17.60;59.60;;;;;;10411051;28;20025;-53
2022/02/11 21:28:44;;;;;;;2.30;0.50;;;17.60;59.60;;;;;;10410214;28;20033;-53
2022/02/11 21:33:45;;;;;;;1.40;0.60;;;17.50;59.50;;;;;;10441293;28;20580;-54
2022/02/11 21:38:46;;;;;;;1.85;0.80;;;17.50;59.60;;;;;;10415678;28;20429;-55
2022/02/11 21:43:46;;;;;;;3.60;0.82;;;17.50;59.50;;;;;;10409605;28;20537;-54
2022/02/11 21:48:47;;;;;;;1.85;0.40;;;17.50;59.50;;;;;;10410988;28;20026;-54
2022/02/11 21:53:48;;;;;;;1.00;0.57;;;17.50;59.40;;;;;;10410714;28;20099;-54
2022/02/11 21:58:50;;;;;;;0.68;0.57;;;17.60;59.30;;;;;;10426123;28;20087;-54
2022/02/11 22:03:50;;;;;;;2.75;0.88;;;17.60;59.20;;;;;;10409776;28;20512;-55
2022/02/11 22:08:51;;;;;;;2.15;0.90;;;17.60;59.10;;;;;;10410753;28;20033;-53
2022/02/11 22:13:52;;;;;;;2.05;0.77;;;17.60;58.90;;;;;;10408868;28;20079;-55
2022/02/11 22:18:52;;;;;;;1.48;0.50;;;17.60;58.90;;;;;;10393089;28;20022;-54
2022/02/11 22:23:53;;;;;;;1.83;1.15;;;17.60;58.80;;;;;;10409917;28;20525;-55
2022/02/11 22:28:54;;;;;;;1.00;0.52;;;17.60;58.80;;;;;;10409991;28;20063;-54
2022/02/11 22:33:55;;;;;;;2.53;0.77;;;17.60;58.80;;;;;;10426829;28;20041;-55
2022/02/11 22:38:55;;;;;;;1.30;0.55;;;17.60;59.50;;;;;;10417562;28;20498;-54
2022/02/11 22:43:56;;;;;;;2.08;0.77;;;17.50;58.90;;;;;;10418020;28;20064;-54
2022/02/11 22:54:16;;;;;;;1.43;0.70;;;17.50;58.90;;;;;;10415630;28;20121;-54
2022/02/11 22:59:17;;;;;;;2.58;0.90;;;17.50;58.90;;;;;;10416766;28;20108;-55
2022/02/11 23:04:17;;;;;;;1.90;1.00;;;17.50;58.80;;;;;;10416309;28;20033;-54
2022/02/11 23:09:26;;;;;;;1.70;0.88;;;17.50;58.70;;;;;;10416763;28;20425;-54
2022/02/11 23:14:29;;;;;;;1.63;1.08;;;17.50;58.60;;;;;;10414849;28;20552;-54
2022/02/11 23:19:31;;;;;;;2.33;0.80;;;17.60;58.60;;;;;;10430909;28;20096;-55
2022/02/11 23:24:32;;;;;;;2.20;0.82;;;17.50;58.60;;;;;;10416186;28;20080;-53
2022/02/11 23:29:34;;;;;;;1.48;0.98;;;17.50;58.50;;;;;;10414433;28;20103;-54
2022/02/11 23:34:35;;;;;;;2.75;1.17;;;17.50;58.60;;;;;;10430417;28;20025;-54
2022/02/11 23:39:38;;;;;;;1.73;1.02;;;17.50;58.60;;;;;;10414299;28;20112;-55
2022/02/11 23:44:40;;;;;;;2.70;1.10;;;17.50;58.50;;;;;;10411912;28;20452;-55
2022/02/11 23:49:41;;;;;;;2.47;1.20;;;17.50;58.40;;;;;;10413584;28;20115;-54
2022/02/11 23:54:41;;;;;;;2.90;1.20;;;17.50;58.30;;;;;;10414655;28;20126;-54
2022/02/11 23:59:42;;;;;;;3.55;1.13;;;17.60;58.20;;;;;;10428892;28;20148;-55
